Time;durP1;ratioP1;P1;durP2;ratioP2;P2;SDS_P1;SDS_P2;PMS_P1;PMS_P2;Temp;Humidity;BMP_temperature;BMP_pressure;BME280_temperature;BME280_humidity;BME280_pressure;Samples;Min_cycle;Max_cycle;Signal;HPM_P1;HPM_P2
2023/07/16 00:00:45;;;;;;;18.73;8.43;;;;;;;;;;5038295;28;20279;-58
2023/07/16 00:03:10;;;;;;;18.20;7.60;;;;;;;;;;5038616;28;20931;-56
2023/07/16 00:05:36;;;;;;;16.40;7.43;;;;;;;;;;5039800;28;20452;-55
2023/07/16 00:08:01;;;;;;;17.45;7.63;;;;;;;;;;5039300;28;20040;-57
2023/07/16 00:10:27;;;;;;;20.97;8.93;;;;;;;;;;5037047;28;20033;-56
2023/07/16 00:12:52;;;;;;;19.87;8.07;;;;;;;;;;5038300;28;20275;-57
2023/07/16 00:15:17;;;;;;;20.65;8.30;;;;;;;;;;5036229;28;20721;-58
2023/07/16 00:17:43;;;;;;;18.25;8.20;;;;;;;;;;5038282;28;20013;-57
2023/07/16 00:20:09;;;;;;;18.83;7.50;;;;;;;;;;5039062;28;20025;-58
2023/07/16 00:22:34;;;;;;;16.98;7.47;;;;;;;;;;5037844;28;20025;-58
2023/07/16 00:24:59;;;;;;;16.03;7.33;;;;;;;;;;5036338;28;20047;-56
2023/07/16 00:27:24;;;;;;;25.43;9.20;;;;;;;;;;5036143;28;20425;-57
2023/07/16 00:29:49;;;;;;;18.00;7.73;;;;;;;;;;5037673;28;20569;-57
2023/07/16 00:32:15;;;;;;;27.30;9.33;;;;;;;;;;5035864;28;20033;-58
2023/07/16 00:34:40;;;;;;;19.65;8.40;;;;;;;;;;5035203;28;20842;-58
2023/07/16 00:37:05;;;;;;;19.67;8.20;;;;;;;;;;5035594;28;20128;-56
2023/07/16 00:39:30;;;;;;;18.13;7.37;;;;;;;;;;5034239;28;20021;-58
2023/07/16 00:41:56;;;;;;;22.50;8.80;;;;;;;;;;5036865;28;20366;-56
2023/07/16 00:44:21;;;;;;;25.45;9.32;;;;;;;;;;5036063;28;20332;-57
2023/07/16 00:46:46;;;;;;;22.15;8.65;;;;;;;;;;5035341;28;20094;-58
2023/07/16 00:49:12;;;;;;;21.33;8.50;;;;;;;;;;5036535;28;20460;-57
2023/07/16 00:51:37;;;;;;;19.17;8.00;;;;;;;;;;5036716;28;20264;-58
2023/07/16 00:54:03;;;;;;;15.95;7.95;;;;;;;;;;5025626;28;20071;-58
2023/07/16 00:56:28;;;;;;;21.20;8.85;;;;;;;;;;5035745;28;20036;-58
2023/07/16 00:58:54;;;;;;;16.70;7.93;;;;;;;;;;5036601;28;20029;-59
2023/07/16 01:01:19;;;;;;;26.20;9.93;;;;;;;;;;5036065;28;20497;-58
2023/07/16 01:03:44;;;;;;;20.07;8.50;;;;;;;;;;5037688;28;20644;-58
2023/07/16 01:06:16;;;;;;;18.80;7.93;;;;;;;;;;5035719;28;20352;-58
2023/07/16 01:08:44;;;;;;;20.67;8.68;;;;;;;;;;5037617;28;20425;-57
2023/07/16 01:11:10;;;;;;;19.90;8.40;;;;;;;;;;5036525;28;20043;-56
2023/07/16 01:13:35;;;;;;;20.50;8.68;;;;;;;;;;5035686;28;20022;-57
2023/07/16 01:16:02;;;;;;;21.02;8.60;;;;;;;;;;5036328;28;20106;-57
2023/07/16 01:18:27;;;;;;;28.88;10.13;;;;;;;;;;5033552;28;20067;-58
2023/07/16 01:20:53;;;;;;;20.07;8.63;;;;;;;;;;5037108;28;20480;-59
2023/07/16 01:23:33;;;;;;;21.95;9.13;;;;;;;;;;5034245;28;20021;-58
2023/07/16 01:25:58;;;;;;;19.33;6.90;;;;;;;;;;5035119;28;20037;-57
2023/07/16 01:28:42;;;;;;;23.53;7.57;;;;;;;;;;5034746;28;20083;-58
2023/07/16 01:31:08;;;;;;;34.50;12.65;;;;;;;;;;5035581;28;20585;-58
2023/07/16 01:33:34;;;;;;;15.95;6.88;;;;;;;;;;5034827;28;20029;-59
2023/07/16 01:35:59;;;;;;;15.20;6.53;;;;;;;;;;5036361;28;20033;-60
2023/07/16 01:38:25;;;;;;;16.95;6.55;;;;;;;;;;5033841;28;20466;-58
2023/07/16 01:40:50;;;;;;;14.98;5.53;;;;;;;;;;5036545;28;20024;-58
2023/07/16 01:43:15;;;;;;;14.60;5.70;;;;;;;;;;5036091;28;20052;-57
2023/07/16 01:45:40;;;;;;;12.57;5.30;;;;;;;;;;5036636;28;20302;-58
2023/07/16 01:48:29;;;;;;;20.27;8.15;;;;;;;;;;5036431;28;20635;-59
2023/07/16 01:50:55;;;;;;;11.20;4.63;;;;;;;;;;5035449;28;20044;-58
2023/07/16 01:53:20;;;;;;;17.77;6.10;;;;;;;;;;5034043;28;20021;-58
2023/07/16 01:55:46;;;;;;;15.00;4.97;;;;;;;;;;5035619;28;20761;-59
2023/07/16 01:58:11;;;;;;;16.67;5.20;;;;;;;;;;5035879;28;20468;-58
2023/07/16 02:00:36;;;;;;;13.57;5.07;;;;;;;;;;5033277;28;20043;-59
2023/07/16 02:03:02;;;;;;;13.73;5.55;;;;;;;;;;5036307;28;20409;-58
2023/07/16 02:05:27;;;;;;;19.60;5.93;;;;;;;;;;5034931;28;20434;-57
2023/07/16 02:07:52;;;;;;;13.90;5.82;;;;;;;;;;5036612;28;20025;-58
2023/07/16 02:10:17;;;;;;;11.57;4.70;;;;;;;;;;5034631;28;20151;-58
2023/07/16 02:12:43;;;;;;;10.82;4.45;;;;;;;;;;5035484;28;20027;-58
2023/07/16 02:15:08;;;;;;;13.90;4.80;;;;;;;;;;5035594;28;20021;-57
2023/07/16 02:17:33;;;;;;;22.38;6.57;;;;;;;;;;5034410;28;20021;-57
2023/07/16 02:19:59;;;;;;;14.10;5.20;;;;;;;;;;5036406;28;20429;-58
2023/07/16 02:22:24;;;;;;;18.63;5.87;;;;;;;;;;5035231;28;20809;-57
2023/07/16 02:24:49;;;;;;;13.93;5.20;;;;;;;;;;5036954;28;20607;-58
2023/07/16 02:27:15;;;;;;;15.40;5.80;;;;;;;;;;5036137;28;20283;-59
2023/07/16 02:29:40;;;;;;;15.48;5.30;;;;;;;;;;5035632;28;20255;-59
2023/07/16 02:32:05;;;;;;;21.63;8.73;;;;;;;;;;5035972;28;20037;-58
2023/07/16 02:34:30;;;;;;;30.45;6.60;;;;;;;;;;5034990;28;20060;-58
2023/07/16 02:36:56;;;;;;;12.73;4.57;;;;;;;;;;5036182;28;20056;-58
2023/07/16 02:39:21;;;;;;;19.57;5.60;;;;;;;;;;5035377;28;20466;-58
2023/07/16 02:41:46;;;;;;;13.10;4.97;;;;;;;;;;5018034;28;20079;-58
2023/07/16 02:44:11;;;;;;;14.48;4.80;;;;;;;;;;5036202;28;20263;-58
2023/07/16 02:46:37;;;;;;;18.40;5.70;;;;;;;;;;5034788;28;20116;-58
2023/07/16 02:49:02;;;;;;;13.40;5.00;;;;;;;;;;5036015;28;20298;-59
2023/07/16 02:51:28;;;;;;;32.40;15.52;;;;;;;;;;5034265;28;20124;-57
2023/07/16 02:53:53;;;;;;;13.05;4.93;;;;;;;;;;5036899;28;20455;-58
2023/07/16 02:56:18;;;;;;;14.27;4.60;;;;;;;;;;5035105;28;20128;-59
2023/07/16 02:58:44;;;;;;;10.23;4.47;;;;;;;;;;5036159;28;20308;-56
2023/07/16 03:01:09;;;;;;;14.10;4.50;;;;;;;;;;5036054;28;20083;-57
2023/07/16 03:03:35;;;;;;;17.90;5.20;;;;;;;;;;5036480;28;20256;-57
2023/07/16 03:06:00;;;;;;;13.05;4.68;;;;;;;;;;5038222;28;20374;-56
2023/07/16 03:08:29;;;;;;;18.50;5.70;;;;;;;;;;5019638;28;20394;-58
2023/07/16 03:10:55;;;;;;;13.13;4.68;;;;;;;;;;5038792;28;20384;-59
2023/07/16 03:13:20;;;;;;;14.33;4.73;;;;;;;;;;5015252;28;20025;-56
2023/07/16 03:15:45;;;;;;;10.10;4.00;;;;;;;;;;5038330;28;20402;-57
2023/07/16 03:18:10;;;;;;;16.20;4.30;;;;;;;;;;5025507;28;20842;-58
2023/07/16 03:20:36;;;;;;;19.13;5.60;;;;;;;;;;5037314;28;20267;-61
2023/07/16 03:23:01;;;;;;;11.30;4.53;;;;;;;;;;5039253;28;20036;-60
2023/07/16 03:25:26;;;;;;;21.40;5.33;;;;;;;;;;5036549;28;20443;-60
2023/07/16 03:27:51;;;;;;;12.07;3.90;;;;;;;;;;5039582;28;20437;-60
2023/07/16 03:30:17;;;;;;;13.35;4.53;;;;;;;;;;5039547;28;20272;-59
2023/07/16 03:32:42;;;;;;;16.27;4.88;;;;;;;;;;5038094;28;20340;-60
2023/07/16 03:35:07;;;;;;;14.90;4.53;;;;;;;;;;5039829;28;20021;-60
2023/07/16 03:37:32;;;;;;;16.52;5.20;;;;;;;;;;5036772;28;20712;-58
2023/07/16 03:40:11;;;;;;;15.30;4.10;;;;;;;;;;5038399;28;20017;-60
2023/07/16 03:42:36;;;;;;;15.13;4.47;;;;;;;;;;5035777;28;20267;-60
2023/07/16 03:45:02;;;;;;;13.60;4.37;;;;;;;;;;5038219;28;20102;-60
2023/07/16 03:47:27;;;;;;;15.00;4.47;;;;;;;;;;5036786;28;20041;-60
2023/07/16 03:49:52;;;;;;;12.30;3.83;;;;;;;;;;5039614;28;20035;-58
2023/07/16 03:52:17;;;;;;;12.50;4.20;;;;;;;;;;5039679;28;20033;-59
2023/07/16 03:54:43;;;;;;;12.50;3.90;;;;;;;;;;5038182;28;20031;-57
2023/07/16 03:57:08;;;;;;;12.85;4.03;;;;;;;;;;5037659;28;20033;-57
2023/07/16 03:59:33;;;;;;;22.17;5.22;;;;;;;;;;5017024;28;20021;-57
2023/07/16 04:01:58;;;;;;;12.25;3.83;;;;;;;;;;5038601;28;20589;-58
2023/07/16 04:04:24;;;;;;;12.70;3.60;;;;;;;;;;5017258;28;20024;-57
2023/07/16 04:06:49;;;;;;;9.77;3.30;;;;;;;;;;5038807;28;20036;-58
2023/07/16 04:09:14;;;;;;;12.27;3.57;;;;;;;;;;5038263;28;20035;-58
2023/07/16 04:11:39;;;;;;;17.57;4.57;;;;;;;;;;5036108;28;20029;-58
2023/07/16 04:14:05;;;;;;;11.18;3.55;;;;;;;;;;5039818;28;20370;-58
2023/07/16 04:16:30;;;;;;;20.03;4.90;;;;;;;;;;5036776;28;20037;-58
2023/07/16 04:18:55;;;;;;;14.63;3.90;;;;;;;;;;5039081;28;20017;-57
2023/07/16 04:21:21;;;;;;;8.80;3.40;;;;;;;;;;5038445;28;20362;-57
2023/07/16 04:23:46;;;;;;;12.48;3.67;;;;;;;;;;5035791;28;20619;-58
2023/07/16 04:26:11;;;;;;;15.13;4.40;;;;;;;;;;5036439;28;20040;-57
2023/07/16 04:28:36;;;;;;;15.27;4.13;;;;;;;;;;5037240;28;20099;-59
2023/07/16 04:31:02;;;;;;;12.80;4.45;;;;;;;;;;5018319;28;20333;-57
2023/07/16 04:33:27;;;;;;;17.37;4.40;;;;;;;;;;5035890;28;20179;-58
2023/07/16 04:35:52;;;;;;;12.30;3.70;;;;;;;;;;5036605;28;20692;-57
2023/07/16 04:38:17;;;;;;;104.90;30.90;;;;;;;;;;5036530;28;20302;-57
2023/07/16 04:40:43;;;;;;;81.53;73.73;;;;;;;;;;5035637;28;20281;-56
2023/07/16 04:43:08;;;;;;;93.22;65.72;;;;;;;;;;5035959;28;20275;-58
2023/07/16 04:45:33;;;;;;;107.82;71.57;;;;;;;;;;5033837;28;20040;-58
2023/07/16 04:47:59;;;;;;;70.53;62.17;;;;;;;;;;5037766;28;20099;-57
2023/07/16 04:50:24;;;;;;;120.50;36.50;;;;;;;;;;5037313;28;20692;-59
2023/07/16 04:52:49;;;;;;;21.08;15.68;;;;;;;;;;5036534;28;20342;-58
2023/07/16 04:55:15;;;;;;;110.70;99.43;;;;;;;;;;5036192;28;20083;-58
2023/07/16 04:57:40;;;;;;;94.80;84.53;;;;;;;;;;5035324;28;20427;-56
2023/07/16 05:00:06;;;;;;;45.10;32.67;;;;;;;;;;5036183;28;20025;-56
2023/07/16 05:02:31;;;;;;;120.30;75.05;;;;;;;;;;5036270;28;20383;-56
2023/07/16 05:04:56;;;;;;;47.80;41.65;;;;;;;;;;5037179;28;20400;-57
2023/07/16 05:07:21;;;;;;;123.87;81.43;;;;;;;;;;5035863;28;20061;-58
2023/07/16 05:09:47;;;;;;;51.13;35.43;;;;;;;;;;5035375;28;20143;-57
2023/07/16 05:12:12;;;;;;;209.23;191.43;;;;;;;;;;5036982;28;20123;-58
2023/07/16 05:14:45;;;;;;;180.03;120.77;;;;;;;;;;5034503;28;20625;-58
2023/07/16 05:17:10;;;;;;;151.10;125.78;;;;;;;;;;5036023;28;20064;-57
2023/07/16 05:19:35;;;;;;;160.70;147.53;;;;;;;;;;5035377;28;20128;-58
2023/07/16 05:22:01;;;;;;;134.40;121.10;;;;;;;;;;5037205;28;20112;-58
2023/07/16 05:24:26;;;;;;;289.60;263.03;;;;;;;;;;5037111;28;20033;-58
2023/07/16 05:26:54;;;;;;;198.18;183.10;;;;;;;;;;5035403;28;20295;-57
2023/07/16 05:29:19;;;;;;;175.48;156.02;;;;;;;;;;5037777;28;20446;-57
2023/07/16 05:31:46;;;;;;;225.85;207.48;;;;;;;;;;5035873;28;21066;-57
2023/07/16 05:34:11;;;;;;;131.32;119.78;;;;;;;;;;5037702;28;20052;-58
2023/07/16 05:36:36;;;;;;;271.88;246.80;;;;;;;;;;5035814;28;20041;-58
2023/07/16 05:39:02;;;;;;;254.37;232.50;;;;;;;;;;5037304;28;20147;-58
2023/07/16 05:41:27;;;;;;;299.10;272.83;;;;;;;;;;5037712;28;20780;-58
2023/07/16 05:43:52;;;;;;;227.63;209.47;;;;;;;;;;5036436;28;20017;-58
2023/07/16 05:46:17;;;;;;;140.65;129.02;;;;;;;;;;5036857;28;20048;-57
2023/07/16 05:48:42;;;;;;;213.43;193.27;;;;;;;;;;5035401;28;20421;-63
2023/07/16 05:51:08;;;;;;;248.73;226.97;;;;;;;;;;5035691;28;20029;-57
2023/07/16 05:53:33;;;;;;;238.07;216.87;;;;;;;;;;5034270;28;20021;-57
2023/07/16 05:55:59;;;;;;;163.32;149.30;;;;;;;;;;5036339;28;20039;-58
2023/07/16 05:58:24;;;;;;;242.45;223.60;;;;;;;;;;5036181;28;20071;-58
2023/07/16 06:00:50;;;;;;;182.25;167.77;;;;;;;;;;5034341;28;20566;-58
2023/07/16 06:03:16;;;;;;;201.80;184.00;;;;;;;;;;5036616;28;20453;-59
2023/07/16 06:05:42;;;;;;;284.73;259.65;;;;;;;;;;5033998;28;20049;-58
2023/07/16 06:08:07;;;;;;;249.23;229.23;;;;;;;;;;5035851;28;20026;-59
2023/07/16 06:10:33;;;;;;;355.35;326.50;;;;;;;;;;5033954;28;20075;-58
2023/07/16 06:12:58;;;;;;;326.15;298.23;;;;;;;;;;5035695;28;20398;-58
2023/07/16 06:15:24;;;;;;;326.47;300.93;;;;;;;;;;5035511;28;20072;-59
2023/07/16 06:17:49;;;;;;;300.35;276.02;;;;;;;;;;5033562;28;20278;-59
2023/07/16 06:20:14;;;;;;;272.07;249.93;;;;;;;;;;5035819;28;20089;-59
2023/07/16 06:22:39;;;;;;;372.93;342.43;;;;;;;;;;5034629;28;20255;-58
2023/07/16 06:25:05;;;;;;;298.73;274.60;;;;;;;;;;5036091;28;20041;-58
2023/07/16 06:27:30;;;;;;;300.13;277.15;;;;;;;;;;5034501;28;20292;-58
2023/07/16 06:29:56;;;;;;;330.67;303.13;;;;;;;;;;5034070;28;20024;-57
2023/07/16 06:32:21;;;;;;;348.23;321.48;;;;;;;;;;5035159;28;20029;-62
2023/07/16 06:34:46;;;;;;;235.00;215.48;;;;;;;;;;5034329;28;20021;-59
2023/07/16 06:37:11;;;;;;;292.80;270.03;;;;;;;;;;5035821;28;20096;-58
2023/07/16 06:39:37;;;;;;;159.03;144.10;;;;;;;;;;5037846;28;20110;-59
2023/07/16 06:42:02;;;;;;;292.48;267.25;;;;;;;;;;5038338;28;20137;-56
2023/07/16 06:44:27;;;;;;;231.43;213.48;;;;;;;;;;5039355;28;20028;-56
2023/07/16 06:46:53;;;;;;;271.90;245.27;;;;;;;;;;5036837;28;20059;-58
2023/07/16 06:49:18;;;;;;;291.00;266.10;;;;;;;;;;5039640;28;20017;-58
2023/07/16 06:51:43;;;;;;;279.90;209.45;;;;;;;;;;5037751;28;20052;-57
2023/07/16 06:54:09;;;;;;;222.03;203.33;;;;;;;;;;5039346;28;20029;-59
2023/07/16 06:56:34;;;;;;;239.48;219.35;;;;;;;;;;5035946;28;20272;-57
2023/07/16 06:58:59;;;;;;;266.75;244.93;;;;;;;;;;5041113;28;20032;-58
2023/07/16 07:01:27;;;;;;;342.60;306.70;;;;;;;;;;5040247;28;20033;-58
2023/07/16 07:03:52;;;;;;;245.60;220.63;;;;;;;;;;5037915;28;20086;-59
2023/07/16 07:06:18;;;;;;;382.13;340.58;;;;;;;;;;5039851;28;20048;-59
2023/07/16 07:08:43;;;;;;;355.07;325.27;;;;;;;;;;5039881;28;20392;-59
2023/07/16 07:11:08;;;;;;;255.13;235.47;;;;;;;;;;5039900;28;20037;-59
2023/07/16 07:13:33;;;;;;;314.77;284.87;;;;;;;;;;5040320;28;20009;-59
2023/07/16 07:15:58;;;;;;;240.23;220.17;;;;;;;;;;5038913;28;20037;-59
2023/07/16 07:18:24;;;;;;;276.07;251.93;;;;;;;;;;5022669;28;20055;-59
2023/07/16 07:20:49;;;;;;;443.23;403.20;;;;;;;;;;5038586;28;20382;-57
2023/07/16 07:23:15;;;;;;;320.88;266.95;;;;;;;;;;5040747;28;20376;-56
2023/07/16 07:25:40;;;;;;;385.05;299.52;;;;;;;;;;5037529;28;20029;-58
2023/07/16 07:28:06;;;;;;;323.03;291.47;;;;;;;;;;5039391;28;20036;-58
2023/07/16 07:30:31;;;;;;;471.08;434.60;;;;;;;;;;5039489;28;20438;-59
2023/07/16 07:32:56;;;;;;;316.10;285.33;;;;;;;;;;5024564;28;20028;-59
2023/07/16 07:35:22;;;;;;;393.80;358.52;;;;;;;;;;5021702;28;20910;-57
2023/07/16 07:37:47;;;;;;;334.20;307.20;;;;;;;;;;5037281;28;20300;-59
2023/07/16 07:40:12;;;;;;;316.60;291.65;;;;;;;;;;5003282;28;20052;-59
2023/07/16 07:42:38;;;;;;;320.42;296.00;;;;;;;;;;5037212;28;20104;-59
2023/07/16 07:45:03;;;;;;;289.40;267.45;;;;;;;;;;5036990;28;20041;-58
2023/07/16 07:47:28;;;;;;;402.48;368.50;;;;;;;;;;5036088;28;20422;-58
2023/07/16 07:49:54;;;;;;;424.47;385.10;;;;;;;;;;5036935;28;20025;-57
2023/07/16 07:52:19;;;;;;;399.60;369.73;;;;;;;;;;5038564;28;20032;-58
2023/07/16 07:54:44;;;;;;;324.15;255.82;;;;;;;;;;5037617;28;20051;-59
2023/07/16 07:57:10;;;;;;;227.25;208.65;;;;;;;;;;5038125;28;20699;-58
2023/07/16 07:59:35;;;;;;;341.52;314.20;;;;;;;;;;5021416;28;20321;-56
2023/07/16 08:02:01;;;;;;;361.38;327.77;;;;;;;;;;5036242;28;20052;-58
2023/07/16 08:04:27;;;;;;;384.05;351.27;;;;;;;;;;5039471;28;20037;-59
2023/07/16 08:06:53;;;;;;;273.90;249.35;;;;;;;;;;5036746;28;20036;-58
2023/07/16 08:09:18;;;;;;;241.98;185.18;;;;;;;;;;5038001;28;20520;-58
2023/07/16 08:11:43;;;;;;;348.57;313.13;;;;;;;;;;5035403;28;20047;-58
2023/07/16 08:14:08;;;;;;;289.90;266.35;;;;;;;;;;5037974;28;20711;-57
2023/07/16 08:16:34;;;;;;;248.97;228.60;;;;;;;;;;5037297;28;20036;-59
2023/07/16 08:18:59;;;;;;;302.50;278.83;;;;;;;;;;5037080;28;20028;-58
2023/07/16 08:21:24;;;;;;;362.37;330.77;;;;;;;;;;5037980;28;20036;-58
2023/07/16 08:23:50;;;;;;;183.27;151.35;;;;;;;;;;5035048;28;20259;-60
2023/07/16 08:26:16;;;;;;;207.20;192.32;;;;;;;;;;5036499;28;20287;-59
2023/07/16 08:28:41;;;;;;;385.90;352.35;;;;;;;;;;5035838;28;20389;-59
2023/07/16 08:31:06;;;;;;;223.00;200.15;;;;;;;;;;5036872;28;20379;-58
2023/07/16 08:33:31;;;;;;;351.73;320.70;;;;;;;;;;5035006;28;20031;-58
2023/07/16 08:35:56;;;;;;;270.00;242.83;;;;;;;;;;5035111;28;20529;-57
2023/07/16 08:38:22;;;;;;;394.57;363.60;;;;;;;;;;5037262;28;20271;-58
2023/07/16 08:40:48;;;;;;;310.93;284.60;;;;;;;;;;5035454;28;20033;-58
2023/07/16 08:43:16;;;;;;;326.02;299.67;;;;;;;;;;5037705;28;20263;-59
2023/07/16 08:45:44;;;;;;;239.18;219.25;;;;;;;;;;5036058;28;20029;-58
2023/07/16 08:48:10;;;;;;;281.48;258.00;;;;;;;;;;5036559;28;20454;-58
2023/07/16 08:50:36;;;;;;;302.67;275.38;;;;;;;;;;5037126;28;20025;-58
2023/07/16 08:53:01;;;;;;;325.67;298.92;;;;;;;;;;5036472;28;20873;-59
2023/07/16 08:55:26;;;;;;;379.17;348.73;;;;;;;;;;5037246;28;20020;-59
2023/07/16 08:57:52;;;;;;;282.65;256.73;;;;;;;;;;5033541;28;20637;-59
2023/07/16 09:00:18;;;;;;;207.88;189.90;;;;;;;;;;5007674;28;20437;-59
2023/07/16 09:02:43;;;;;;;304.50;279.55;;;;;;;;;;5010299;28;20479;-58
2023/07/16 09:05:09;;;;;;;366.57;337.17;;;;;;;;;;5036935;28;20115;-59
2023/07/16 09:07:36;;;;;;;346.58;314.42;;;;;;;;;;5036944;28;20028;-59
2023/07/16 09:10:01;;;;;;;370.00;338.40;;;;;;;;;;5035680;28;20468;-58
2023/07/16 09:12:26;;;;;;;291.30;268.80;;;;;;;;;;5036438;28;20017;-59
2023/07/16 09:14:52;;;;;;;425.77;386.58;;;;;;;;;;5036078;28;20255;-59
2023/07/16 09:17:24;;;;;;;360.87;325.53;;;;;;;;;;5036217;28;20105;-59
2023/07/16 09:19:52;;;;;;;272.75;251.07;;;;;;;;;;5033641;28;20256;-58
2023/07/16 09:22:18;;;;;;;338.17;308.23;;;;;;;;;;5037756;28;20037;-59
2023/07/16 09:24:47;;;;;;;321.40;292.73;;;;;;;;;;5035728;28;20028;-57
2023/07/16 09:27:12;;;;;;;372.45;343.35;;;;;;;;;;5036133;28;20033;-58
2023/07/16 09:29:38;;;;;;;309.60;284.17;;;;;;;;;;5036523;28;20083;-59
2023/07/16 09:32:04;;;;;;;345.45;317.30;;;;;;;;;;5035354;28;20653;-58
2023/07/16 09:34:30;;;;;;;406.17;372.30;;;;;;;;;;5034069;28;20064;-58
2023/07/16 09:36:56;;;;;;;404.50;366.57;;;;;;;;;;5036288;28;20841;-58
2023/07/16 09:39:22;;;;;;;468.48;433.75;;;;;;;;;;5037908;28;20619;-58
2023/07/16 09:41:48;;;;;;;418.25;383.58;;;;;;;;;;5014118;28;20376;-56
2023/07/16 09:44:14;;;;;;;493.40;455.63;;;;;;;;;;5037667;28;20094;-58
2023/07/16 09:46:39;;;;;;;435.33;400.38;;;;;;;;;;5037134;28;20041;-57
2023/07/16 09:49:04;;;;;;;471.73;434.63;;;;;;;;;;5036104;28;20079;-58
2023/07/16 09:51:30;;;;;;;451.87;405.70;;;;;;;;;;5036942;28;20284;-56
2023/07/16 09:53:55;;;;;;;348.60;317.73;;;;;;;;;;5035222;28;20044;-59
2023/07/16 09:56:21;;;;;;;357.15;321.02;;;;;;;;;;5036088;28;20029;-59
2023/07/16 09:58:46;;;;;;;463.30;353.50;;;;;;;;;;5035378;28;20048;-58
2023/07/16 10:01:12;;;;;;;497.60;458.57;;;;;;;;;;5035773;28;20033;-59
2023/07/16 10:03:47;;;;;;;402.55;364.30;;;;;;;;;;5037272;28;20267;-59
2023/07/16 10:06:13;;;;;;;503.65;457.42;;;;;;;;;;5035811;28;20064;-59
2023/07/16 10:08:38;;;;;;;505.73;463.60;;;;;;;;;;5036817;28;20017;-58
2023/07/16 10:11:03;;;;;;;504.07;460.57;;;;;;;;;;5013958;28;20271;-59
2023/07/16 10:13:28;;;;;;;463.80;426.70;;;;;;;;;;5036910;28;20366;-59
2023/07/16 10:15:58;;;;;;;469.33;431.40;;;;;;;;;;5038280;28;20525;-59
2023/07/16 10:18:30;;;;;;;570.95;524.33;;;;;;;;;;5040021;28;20255;-59
2023/07/16 10:21:08;;;;;;;425.30;388.58;;;;;;;;;;5038976;28;20029;-58
2023/07/16 10:23:37;;;;;;;486.20;446.90;;;;;;;;;;5039722;28;20013;-59
2023/07/16 10:26:07;;;;;;;448.15;400.95;;;;;;;;;;5038060;28;20094;-59
2023/07/16 10:28:33;;;;;;;512.65;468.83;;;;;;;;;;5040833;28;20021;-58
2023/07/16 10:30:58;;;;;;;336.67;304.08;;;;;;;;;;5037956;28;20033;-58
2023/07/16 10:33:24;;;;;;;440.50;404.67;;;;;;;;;;5040638;28;20063;-59
2023/07/16 10:35:49;;;;;;;423.10;390.07;;;;;;;;;;5038578;28;20095;-59
2023/07/16 10:38:14;;;;;;;440.63;403.37;;;;;;;;;;5040980;28;20088;-59
2023/07/16 10:40:40;;;;;;;600.97;431.57;;;;;;;;;;5040637;28;20036;-59
2023/07/16 10:43:06;;;;;;;322.38;295.67;;;;;;;;;;5038785;28;20290;-59
2023/07/16 10:45:31;;;;;;;485.48;448.08;;;;;;;;;;5039540;28;20426;-59
2023/07/16 10:47:56;;;;;;;519.17;477.10;;;;;;;;;;5025823;28;20167;-58
2023/07/16 10:50:22;;;;;;;564.17;516.70;;;;;;;;;;5040603;28;20112;-59
2023/07/16 10:52:50;;;;;;;463.77;427.65;;;;;;;;;;5038303;28;20262;-56
2023/07/16 10:55:15;;;;;;;552.35;509.80;;;;;;;;;;5040131;28;20055;-58
2023/07/16 10:57:40;;;;;;;531.73;484.47;;;;;;;;;;5040210;28;20021;-58
2023/07/16 11:00:10;;;;;;;364.43;333.67;;;;;;;;;;5039133;28;20259;-59
2023/07/16 11:02:40;;;;;;;499.38;337.42;;;;;;;;;;5040718;28;20079;-58
2023/07/16 11:05:05;;;;;;;433.75;395.40;;;;;;;;;;5038083;28;20438;-57
2023/07/16 11:07:30;;;;;;;466.95;368.50;;;;;;;;;;5038791;28;20042;-59
2023/07/16 11:09:56;;;;;;;386.47;355.20;;;;;;;;;;5039202;28;20650;-56
2023/07/16 11:12:22;;;;;;;498.33;446.77;;;;;;;;;;5039672;28;20025;-57
2023/07/16 11:14:54;;;;;;;502.65;459.60;;;;;;;;;;5040566;28;20013;-57
2023/07/16 11:17:19;;;;;;;;;;;;;;;;;;5039719;28;20099;-57
2023/07/16 11:19:45;;;;;;;505.55;465.08;;;;;;;;;;5039526;28;19909;-58
2023/07/16 11:22:10;;;;;;;440.50;405.63;;;;;;;;;;5038109;28;20029;-58
2023/07/16 11:24:40;;;;;;;366.37;336.30;;;;;;;;;;5037947;28;20138;-57
2023/07/16 11:27:06;;;;;;;502.23;461.85;;;;;;;;;;5018581;28;20280;-58
2023/07/16 11:29:36;;;;;;;548.10;500.27;;;;;;;;;;5038201;28;20094;-58
2023/07/16 11:32:01;;;;;;;456.10;348.48;;;;;;;;;;5037907;28;20111;-57
2023/07/16 11:34:27;;;;;;;545.40;499.63;;;;;;;;;;5039457;28;20022;-57
2023/07/16 11:36:52;;;;;;;493.50;446.57;;;;;;;;;;5035942;28;20799;-57
2023/07/16 11:42:39;;;;;;;506.13;465.38;;;;;;;;;;5038839;28;20512;-58
2023/07/16 11:45:04;;;;;;;577.03;527.20;;;;;;;;;;5036236;28;20025;-59
2023/07/16 11:47:30;;;;;;;472.48;434.20;;;;;;;;;;5039053;28;20083;-56
2023/07/16 11:49:56;;;;;;;386.80;353.83;;;;;;;;;;5037110;28;20024;-59
2023/07/16 11:52:23;;;;;;;466.55;422.98;;;;;;;;;;5019976;28;20043;-57
2023/07/16 11:54:48;;;;;;;642.03;586.97;;;;;;;;;;5038615;28;20021;-59
2023/07/16 11:57:14;;;;;;;467.40;426.90;;;;;;;;;;5035330;28;20068;-59
2023/07/16 11:59:39;;;;;;;437.00;401.63;;;;;;;;;;5038123;28;20024;-58
2023/07/16 12:02:04;;;;;;;395.40;356.37;;;;;;;;;;5019051;28;20275;-58
2023/07/16 12:04:30;;;;;;;437.05;400.23;;;;;;;;;;5038288;28;20024;-58
2023/07/16 12:06:55;;;;;;;383.23;340.02;;;;;;;;;;5036299;28;20029;-57
2023/07/16 12:09:20;;;;;;;457.93;420.07;;;;;;;;;;5037875;28;20021;-57
2023/07/16 12:11:45;;;;;;;332.77;304.40;;;;;;;;;;5016382;28;20024;-58
2023/07/16 12:14:12;;;;;;;362.15;240.05;;;;;;;;;;5018837;28;21699;-58
2023/07/16 12:16:38;;;;;;;432.55;393.50;;;;;;;;;;5037176;28;20044;-58
2023/07/16 12:19:03;;;;;;;383.98;351.10;;;;;;;;;;5037164;28;20021;-56
2023/07/16 12:21:28;;;;;;;496.63;456.53;;;;;;;;;;5038285;28;20063;-59
2023/07/16 12:23:54;;;;;;;559.50;508.43;;;;;;;;;;5036458;28;20021;-58
2023/07/16 12:26:20;;;;;;;760.20;473.23;;;;;;;;;;5036668;28;21005;-59
2023/07/16 12:28:45;;;;;;;514.90;470.42;;;;;;;;;;5038666;28;20673;-58
2023/07/16 12:31:11;;;;;;;369.20;334.52;;;;;;;;;;5037212;28;20033;-57
2023/07/16 12:33:36;;;;;;;379.35;351.30;;;;;;;;;;5038895;28;20020;-58
2023/07/16 12:36:02;;;;;;;495.87;457.87;;;;;;;;;;5035760;28;20025;-58
2023/07/16 12:38:28;;;;;;;509.23;469.73;;;;;;;;;;5038259;28;20136;-58
2023/07/16 12:40:53;;;;;;;404.25;369.75;;;;;;;;;;5038377;28;20035;-57
2023/07/16 12:43:18;;;;;;;449.20;404.98;;;;;;;;;;5039191;28;20071;-58
2023/07/16 12:45:43;;;;;;;541.67;484.93;;;;;;;;;;5036728;28;20410;-58
2023/07/16 12:48:09;;;;;;;358.33;329.17;;;;;;;;;;5036795;28;20283;-58
2023/07/16 12:50:34;;;;;;;445.77;409.05;;;;;;;;;;5037761;28;20259;-58
2023/07/16 12:52:59;;;;;;;348.40;319.23;;;;;;;;;;5037241;28;20021;-59
2023/07/16 12:55:24;;;;;;;384.43;350.47;;;;;;;;;;5037270;28;20037;-58
2023/07/16 12:57:50;;;;;;;339.73;309.37;;;;;;;;;;5037485;28;20814;-56
2023/07/16 13:00:15;;;;;;;384.90;353.58;;;;;;;;;;5035306;28;20029;-57
2023/07/16 13:02:40;;;;;;;330.87;303.53;;;;;;;;;;5037838;28;20020;-59
2023/07/16 13:05:06;;;;;;;487.33;448.33;;;;;;;;;;5036019;28;20039;-59
2023/07/16 13:07:31;;;;;;;510.70;472.30;;;;;;;;;;5037278;28;20487;-59
2023/07/16 13:09:57;;;;;;;428.95;394.02;;;;;;;;;;5034933;28;20364;-58
2023/07/16 13:12:22;;;;;;;500.90;459.38;;;;;;;;;;5036412;28;20422;-58
2023/07/16 13:14:47;;;;;;;456.17;417.13;;;;;;;;;;5037867;28;20048;-59
2023/07/16 13:17:14;;;;;;;421.17;388.30;;;;;;;;;;5035526;28;20040;-59
2023/07/16 13:19:40;;;;;;;484.13;437.05;;;;;;;;;;5036325;28;20071;-57
2023/07/16 13:22:05;;;;;;;425.97;390.80;;;;;;;;;;5034899;28;20033;-58
2023/07/16 13:24:30;;;;;;;444.43;409.50;;;;;;;;;;5036733;28;20269;-59
2023/07/16 13:26:55;;;;;;;586.33;533.13;;;;;;;;;;5036153;28;20887;-57
2023/07/16 13:29:21;;;;;;;493.77;456.55;;;;;;;;;;5035304;28;20029;-58
2023/07/16 13:31:46;;;;;;;765.75;258.55;;;;;;;;;;5036326;28;20438;-58
2023/07/16 13:34:12;;;;;;;349.00;319.40;;;;;;;;;;5035508;28;20107;-59
2023/07/16 13:36:37;;;;;;;432.50;397.67;;;;;;;;;;5035461;28;20420;-58
2023/07/16 13:39:04;;;;;;;298.63;272.90;;;;;;;;;;5014292;28;20473;-59
2023/07/16 13:41:30;;;;;;;410.48;374.75;;;;;;;;;;5035282;28;20271;-57
2023/07/16 13:43:55;;;;;;;447.90;413.10;;;;;;;;;;5036047;28;20024;-58
2023/07/16 13:46:20;;;;;;;320.98;292.95;;;;;;;;;;5034805;28;20037;-57
2023/07/16 13:48:45;;;;;;;315.87;288.90;;;;;;;;;;5036795;28;20020;-59
2023/07/16 13:51:11;;;;;;;477.10;436.20;;;;;;;;;;5033840;28;20036;-58
2023/07/16 13:53:36;;;;;;;498.00;458.47;;;;;;;;;;5037239;28;20256;-57
2023/07/16 13:56:01;;;;;;;335.03;309.63;;;;;;;;;;5035627;28;20029;-59
2023/07/16 13:58:26;;;;;;;316.73;291.60;;;;;;;;;;5036888;28;20025;-58
2023/07/16 14:00:52;;;;;;;455.30;411.53;;;;;;;;;;5035839;28;20043;-59